Time;durP1;ratioP1;P1;durP2;ratioP2;P2;SDS_P1;SDS_P2;PMS_P1;PMS_P2;Temp;Humidity;BMP_temperature;BMP_pressure;BME280_temperature;BME280_humidity;BME280_pressure;Samples;Min_cycle;Max_cycle;Signal;HPM_P1;HPM_P2
2021/01/18 00:01:24;;;;;;;32.42;16.70;;;0.90;89.60;;;;;;5051004;28;20086;-71
2021/01/18 00:03:49;;;;;;;31.60;15.38;;;0.90;89.50;;;;;;5052408;28;20037;-71
2021/01/18 00:06:16;;;;;;;32.58;16.02;;;0.80;89.40;;;;;;5053009;28;20048;-71
2021/01/18 00:08:42;;;;;;;27.23;15.40;;;0.80;89.40;;;;;;5062848;28;20032;-71
2021/01/18 00:11:09;;;;;;;29.73;14.48;;;0.80;89.40;;;;;;5063467;28;20036;-71
2021/01/18 00:13:34;;;;;;;30.13;15.35;;;0.80;89.50;;;;;;5053667;28;20037;-71
2021/01/18 00:16:00;;;;;;;28.52;15.10;;;0.80;89.50;;;;;;5052105;28;20393;-71
2021/01/18 00:18:25;;;;;;;30.50;15.27;;;0.80;89.50;;;;;;5065482;28;20017;-71
2021/01/18 00:20:50;;;;;;;29.85;15.57;;;0.80;89.40;;;;;;5051397;28;20426;-70
2021/01/18 00:23:16;;;;;;;32.85;16.52;;;0.70;89.40;;;;;;5058600;28;20028;-71
2021/01/18 00:25:41;;;;;;;31.13;15.32;;;0.70;89.40;;;;;;5065056;28;20107;-71
2021/01/18 00:28:07;;;;;;;33.00;16.77;;;0.70;89.40;;;;;;5051723;28;20048;-71
2021/01/18 00:30:32;;;;;;;31.08;16.13;;;0.70;89.40;;;;;;5051608;28;20116;-71
2021/01/18 00:32:58;;;;;;;29.30;16.52;;;0.70;89.40;;;;;;5052649;28;20171;-72
2021/01/18 00:35:25;;;;;;;29.33;16.33;;;0.60;89.40;;;;;;5053768;28;20036;-71
2021/01/18 00:37:52;;;;;;;29.92;16.45;;;0.60;89.40;;;;;;5051943;28;20481;-70
2021/01/18 00:40:20;;;;;;;30.08;16.05;;;0.60;89.50;;;;;;5085315;28;20165;-71
2021/01/18 00:42:46;;;;;;;34.67;16.52;;;0.60;89.50;;;;;;5083852;28;20023;-70
2021/01/18 00:45:15;;;;;;;30.55;16.60;;;0.60;89.50;;;;;;5051803;28;20397;-71
2021/01/18 00:47:55;;;;;;;29.67;15.13;;;0.50;89.60;;;;;;5053684;28;20530;-71
2021/01/18 00:50:23;;;;;;;34.15;16.13;;;0.50;89.50;;;;;;5071607;28;20035;-71
2021/01/18 00:52:51;;;;;;;34.20;17.15;;;0.50;89.50;;;;;;5061477;28;20024;-71
2021/01/18 00:55:18;;;;;;;29.17;15.10;;;0.50;89.60;;;;;;5063678;28;20037;-72
2021/01/18 00:57:45;;;;;;;31.23;16.27;;;0.50;89.60;;;;;;5060232;28;20029;-71
2021/01/18 01:00:13;;;;;;;31.15;16.60;;;0.50;89.70;;;;;;5051644;28;20116;-71
2021/01/18 01:02:43;;;;;;;31.95;15.90;;;0.50;89.70;;;;;;5055932;28;20028;-70
2021/01/18 01:05:11;;;;;;;28.25;15.05;;;0.50;89.70;;;;;;5071539;28;20032;-71
2021/01/18 01:07:41;;;;;;;34.08;15.65;;;0.50;89.70;;;;;;5061653;28;20033;-71
2021/01/18 01:10:17;;;;;;;29.33;15.55;;;0.40;89.70;;;;;;5051196;28;20519;-70
2021/01/18 01:12:43;;;;;;;28.60;15.70;;;0.40;89.80;;;;;;5051689;28;20033;-71
2021/01/18 01:15:10;;;;;;;29.50;16.10;;;0.40;89.80;;;;;;5050728;28;20580;-70
2021/01/18 01:17:46;;;;;;;31.08;15.98;;;0.40;89.90;;;;;;5051092;28;22317;-70
2021/01/18 01:20:16;;;;;;;31.33;15.13;;;0.40;90.00;;;;;;5049773;28;20491;-71
2021/01/18 01:22:43;;;;;;;32.05;15.18;;;0.30;89.90;;;;;;5051216;28;20125;-70
2021/01/18 01:25:13;;;;;;;33.03;16.42;;;0.30;90.00;;;;;;5051287;28;20485;-69
2021/01/18 01:27:39;;;;;;;29.50;15.98;;;0.30;90.00;;;;;;5051602;28;20032;-70
2021/01/18 01:30:10;;;;;;;29.67;15.93;;;0.30;90.00;;;;;;5050419;28;20477;-71
2021/01/18 01:32:44;;;;;;;28.83;15.27;;;0.30;90.00;;;;;;5054097;28;20646;-70
2021/01/18 01:35:10;;;;;;;33.40;15.52;;;0.20;90.00;;;;;;5070989;28;20094;-70
2021/01/18 01:37:37;;;;;;;34.40;16.75;;;0.20;90.00;;;;;;5059926;28;20451;-70
2021/01/18 01:40:06;;;;;;;30.05;16.27;;;0.20;90.10;;;;;;5051152;28;20036;-71
2021/01/18 01:42:32;;;;;;;34.05;17.15;;;0.20;90.10;;;;;;5051551;28;20518;-70
2021/01/18 01:44:58;;;;;;;37.95;17.38;;;0.10;90.10;;;;;;5050884;28;20065;-70
2021/01/18 01:47:26;;;;;;;33.15;15.63;;;0.10;90.10;;;;;;5065916;28;20047;-70
2021/01/18 01:49:52;;;;;;;30.98;16.83;;;0.10;90.20;;;;;;5071052;28;20033;-71
2021/01/18 01:52:20;;;;;;;31.80;17.13;;;0.00;90.20;;;;;;5050584;28;20079;-71
2021/01/18 01:54:50;;;;;;;30.15;16.13;;;0.00;90.20;;;;;;5050535;28;20128;-70
2021/01/18 01:57:16;;;;;;;31.55;15.10;;;0.10;90.30;;;;;;5050438;28;20018;-70
2021/01/18 01:59:42;;;;;;;33.30;16.20;;;0.00;90.30;;;;;;5050389;28;20033;-71
2021/01/18 02:02:08;;;;;;;32.40;17.20;;;0.00;90.30;;;;;;5051162;28;20772;-70
2021/01/18 02:04:37;;;;;;;35.53;16.38;;;0.00;90.30;;;;;;5051350;28;20060;-71
2021/01/18 02:07:20;;;;;;;34.67;18.27;;;0.00;90.30;;;;;;5056188;28;20065;-72
2021/01/18 02:09:45;;;;;;;37.25;17.95;;;0.00;90.40;;;;;;5050634;28;20068;-72
2021/01/18 02:12:12;;;;;;;34.15;17.42;;;0.00;90.30;;;;;;5052021;28;20079;-72
2021/01/18 02:14:46;;;;;;;35.40;18.20;;;0.00;90.30;;;;;;5057628;28;20096;-72
2021/01/18 02:17:39;;;;;;;35.92;16.33;;;-0.10;90.40;;;;;;5064110;28;21688;-72
2021/01/18 02:20:44;;;;;;;38.03;16.90;;;-0.10;90.40;;;;;;5022544;28;20037;-72
2021/01/18 02:24:08;;;;;;;33.50;17.98;;;-0.10;90.40;;;;;;5050905;28;20447;-71
2021/01/18 02:26:50;;;;;;;44.72;18.88;;;-0.10;90.40;;;;;;5025538;28;20056;-71
2021/01/18 02:29:42;;;;;;;32.83;17.88;;;-0.10;90.40;;;;;;5026362;28;20378;-71
2021/01/18 02:32:55;;;;;;;39.22;17.17;;;-0.20;90.40;;;;;;5045877;28;20044;-71
2021/01/18 02:35:58;;;;;;;39.25;18.65;;;-0.20;90.50;;;;;;5054107;28;20500;-71
2021/01/18 02:38:35;;;;;;;42.83;18.75;;;-0.20;90.50;;;;;;5055156;28;20040;-71
2021/01/18 02:41:14;;;;;;;35.22;19.35;;;-0.20;90.50;;;;;;5054442;28;20469;-70
2021/01/18 02:43:46;;;;;;;37.70;19.15;;;-0.20;90.60;;;;;;5064962;28;20087;-71
2021/01/18 02:46:15;;;;;;;32.58;17.10;;;-0.30;90.60;;;;;;5058354;28;20495;-71
2021/01/18 02:48:41;;;;;;;34.33;16.80;;;-0.30;90.60;;;;;;5054439;28;20031;-71
2021/01/18 02:51:08;;;;;;;39.50;18.88;;;-0.30;90.60;;;;;;5054312;28;20029;-71
2021/01/18 02:53:34;;;;;;;38.83;18.02;;;-0.30;90.70;;;;;;5064522;28;20392;-70
2021/01/18 02:56:00;;;;;;;34.08;16.85;;;-0.30;90.70;;;;;;5066305;28;20033;-71
2021/01/18 02:58:28;;;;;;;34.95;18.63;;;-0.40;90.70;;;;;;5054229;28;20123;-70
2021/01/18 03:01:15;;;;;;;33.47;17.88;;;-0.40;90.80;;;;;;5055512;28;20456;-71
2021/01/18 03:03:58;;;;;;;38.13;18.85;;;-0.40;90.80;;;;;;5065455;28;20127;-71
2021/01/18 03:06:30;;;;;;;40.05;18.48;;;-0.40;90.90;;;;;;5065023;28;20032;-70
2021/01/18 03:09:00;;;;;;;37.38;18.83;;;-0.40;90.90;;;;;;5066737;28;20443;-70
2021/01/18 03:11:35;;;;;;;35.90;19.08;;;-0.40;91.00;;;;;;5067877;28;20037;-71
2021/01/18 03:14:12;;;;;;;40.30;18.55;;;-0.30;91.00;;;;;;5053809;28;20041;-70
2021/01/18 03:16:41;;;;;;;40.42;20.05;;;-0.30;91.10;;;;;;5058461;28;20043;-71
2021/01/18 03:19:08;;;;;;;37.15;18.75;;;-0.30;91.00;;;;;;5056331;28;20478;-71
2021/01/18 03:21:33;;;;;;;36.25;18.08;;;-0.30;91.10;;;;;;5052223;28;20021;-70
2021/01/18 03:23:59;;;;;;;36.33;18.50;;;-0.20;91.10;;;;;;5054796;28;20033;-70
2021/01/18 03:26:25;;;;;;;37.38;19.55;;;-0.20;91.10;;;;;;5053305;28;20025;-70
2021/01/18 03:28:51;;;;;;;38.63;20.08;;;-0.20;91.00;;;;;;5065876;28;20033;-70
2021/01/18 03:31:17;;;;;;;40.53;19.00;;;-0.20;91.00;;;;;;5055337;28;20029;-69
2021/01/18 03:33:42;;;;;;;41.40;20.88;;;-0.20;91.00;;;;;;5052837;28;20045;-69
2021/01/18 03:36:08;;;;;;;44.03;21.25;;;-0.20;91.00;;;;;;5054725;28;20029;-69
2021/01/18 03:38:33;;;;;;;44.47;22.83;;;-0.20;91.00;;;;;;5053503;28;20071;-70
2021/01/18 03:40:59;;;;;;;45.97;20.88;;;-0.10;91.00;;;;;;5053059;28;20488;-69
2021/01/18 03:43:24;;;;;;;42.58;21.77;;;-0.10;91.00;;;;;;5052596;28;20039;-69
2021/01/18 03:45:50;;;;;;;41.08;20.35;;;-0.10;91.10;;;;;;5051596;28;20536;-69
2021/01/18 03:48:16;;;;;;;43.75;21.33;;;-0.10;91.10;;;;;;5060613;28;20016;-69
2021/01/18 03:50:42;;;;;;;42.28;20.63;;;-0.10;91.10;;;;;;5059652;28;20385;-70
2021/01/18 03:53:09;;;;;;;47.80;22.25;;;-0.10;91.10;;;;;;5059076;28;20024;-69
2021/01/18 03:55:35;;;;;;;39.13;20.27;;;0.00;91.10;;;;;;5064551;28;20064;-69
2021/01/18 03:58:01;;;;;;;42.45;22.35;;;0.00;91.00;;;;;;5052486;28;20115;-68
2021/01/18 04:00:28;;;;;;;43.55;21.00;;;0.00;91.00;;;;;;5051683;28;20033;-68
2021/01/18 04:02:55;;;;;;;44.10;19.73;;;0.00;91.00;;;;;;5052369;28;20025;-68
2021/01/18 04:05:22;;;;;;;38.00;20.23;;;0.10;91.10;;;;;;5051226;28;20114;-69
2021/01/18 04:07:48;;;;;;;43.85;20.95;;;0.10;91.00;;;;;;5055905;28;20440;-69
2021/01/18 04:10:16;;;;;;;41.15;19.70;;;0.20;91.00;;;;;;5072571;28;20123;-69
2021/01/18 04:12:44;;;;;;;44.70;21.02;;;0.20;90.90;;;;;;5068928;28;20020;-69
2021/01/18 04:15:11;;;;;;;39.45;19.60;;;0.20;90.90;;;;;;5072326;28;20043;-69
2021/01/18 04:17:41;;;;;;;34.38;18.58;;;0.20;90.90;;;;;;5061872;28;20032;-68
2021/01/18 04:20:08;;;;;;;35.72;19.15;;;0.30;90.90;;;;;;5052812;28;20033;-68
2021/01/18 04:22:34;;;;;;;36.15;18.98;;;0.30;90.80;;;;;;5054347;28;20050;-68
2021/01/18 04:24:59;;;;;;;35.83;17.80;;;0.20;90.80;;;;;;5052899;28;20539;-68
2021/01/18 04:27:24;;;;;;;34.22;18.08;;;0.20;90.70;;;;;;5053252;28;20476;-68
2021/01/18 04:29:50;;;;;;;35.22;18.23;;;0.20;90.70;;;;;;5072105;28;20021;-69
2021/01/18 04:32:15;;;;;;;34.20;17.67;;;0.30;90.80;;;;;;5056996;28;20465;-69
2021/01/18 04:34:42;;;;;;;37.22;18.70;;;0.30;90.70;;;;;;5052977;28;20044;-69
2021/01/18 04:37:08;;;;;;;34.13;17.58;;;0.30;90.70;;;;;;5051629;28;20033;-69
2021/01/18 04:39:33;;;;;;;36.30;18.58;;;0.20;90.60;;;;;;5071253;28;20123;-69
2021/01/18 04:41:59;;;;;;;35.25;19.65;;;0.30;90.70;;;;;;5071431;28;20060;-69
2021/01/18 04:44:26;;;;;;;37.55;18.77;;;0.30;90.70;;;;;;5051752;28;20465;-69
2021/01/18 04:46:54;;;;;;;36.45;18.67;;;0.30;90.70;;;;;;5060000;28;20104;-69
2021/01/18 04:49:20;;;;;;;35.55;19.30;;;0.30;90.60;;;;;;5051553;28;20041;-69
2021/01/18 04:51:54;;;;;;;38.38;20.08;;;0.30;90.60;;;;;;5051840;28;20025;-68
2021/01/18 04:54:21;;;;;;;33.05;18.30;;;0.30;90.60;;;;;;5069703;28;20044;-68
2021/01/18 04:57:11;;;;;;;36.22;17.73;;;0.20;90.50;;;;;;5062431;28;20108;-68
2021/01/18 04:59:46;;;;;;;42.38;19.15;;;0.30;90.60;;;;;;5070039;28;20040;-69
2021/01/18 05:02:23;;;;;;;34.30;18.33;;;0.40;90.50;;;;;;5058346;28;20112;-68
2021/01/18 05:04:51;;;;;;;36.75;19.83;;;0.40;90.50;;;;;;5051921;28;20094;-69
2021/01/18 05:07:34;;;;;;;37.20;19.63;;;0.30;90.40;;;;;;5051279;28;20037;-69
2021/01/18 05:10:07;;;;;;;36.75;18.58;;;0.40;90.40;;;;;;5071794;28;20024;-69
2021/01/18 05:12:46;;;;;;;36.65;18.42;;;0.30;90.40;;;;;;5057097;28;20035;-68
2021/01/18 05:15:12;;;;;;;30.95;16.77;;;0.30;90.40;;;;;;5051142;28;20044;-69
2021/01/18 05:17:46;;;;;;;36.03;19.23;;;0.30;90.40;;;;;;5062254;28;20024;-68
2021/01/18 05:20:14;;;;;;;36.60;19.05;;;0.30;90.40;;;;;;5071335;28;20036;-68
2021/01/18 05:22:42;;;;;;;37.40;17.92;;;0.30;90.40;;;;;;5066889;28;20033;-68
2021/01/18 05:25:09;;;;;;;36.63;18.25;;;0.30;90.40;;;;;;5051290;28;20052;-68
2021/01/18 05:27:54;;;;;;;36.35;18.27;;;0.40;90.40;;;;;;5051264;28;20032;-67
2021/01/18 05:30:21;;;;;;;41.22;19.20;;;0.40;90.40;;;;;;5050872;28;20025;-68
2021/01/18 05:33:18;;;;;;;38.28;18.42;;;0.40;90.50;;;;;;5052487;28;20052;-68
2021/01/18 05:35:48;;;;;;;35.58;18.75;;;0.40;90.40;;;;;;5053247;28;20073;-69
2021/01/18 05:38:14;;;;;;;36.83;18.42;;;0.30;90.40;;;;;;5061473;28;20075;-69
2021/01/18 05:40:44;;;;;;;44.40;20.00;;;0.40;90.40;;;;;;5051541;28;20507;-69
2021/01/18 05:43:13;;;;;;;38.05;18.90;;;0.40;90.50;;;;;;5050177;28;20043;-69
2021/01/18 05:45:40;;;;;;;39.25;19.73;;;0.40;90.50;;;;;;5051269;28;20056;-68
2021/01/18 05:48:09;;;;;;;35.45;18.10;;;0.40;90.40;;;;;;5050292;28;20033;-68
2021/01/18 05:50:36;;;;;;;40.83;19.73;;;0.40;90.40;;;;;;5051688;28;20040;-68
2021/01/18 05:53:22;;;;;;;38.97;19.52;;;0.40;90.50;;;;;;5068498;28;20067;-67
2021/01/18 05:55:47;;;;;;;36.33;20.13;;;0.30;90.40;;;;;;5049262;28;20037;-68
2021/01/18 05:58:31;;;;;;;37.13;18.15;;;0.40;90.50;;;;;;5057843;28;20067;-68
2021/01/18 06:00:57;;;;;;;34.40;18.80;;;0.40;90.50;;;;;;5063012;28;20076;-69
2021/01/18 06:03:30;;;;;;;39.97;19.40;;;0.40;90.50;;;;;;5052144;28;20040;-69
2021/01/18 06:05:57;;;;;;;37.70;18.88;;;0.40;90.40;;;;;;5051906;28;20036;-69
2021/01/18 06:08:26;;;;;;;38.13;18.05;;;0.40;90.40;;;;;;5054497;28;20398;-69
2021/01/18 06:11:01;;;;;;;38.63;19.05;;;0.50;90.40;;;;;;5063728;28;20047;-69
2021/01/18 06:13:27;;;;;;;38.45;19.27;;;0.40;90.40;;;;;;5061857;28;20071;-70
2021/01/18 06:16:13;;;;;;;37.80;19.33;;;0.50;90.40;;;;;;5055241;28;20032;-69
2021/01/18 06:18:41;;;;;;;37.63;19.67;;;0.50;90.40;;;;;;5053291;28;20040;-69
2021/01/18 06:21:08;;;;;;;37.67;18.92;;;0.50;90.40;;;;;;5054903;28;20033;-69
2021/01/18 06:23:34;;;;;;;36.08;20.02;;;0.60;90.50;;;;;;5063964;28;20031;-69
2021/01/18 06:26:00;;;;;;;38.00;20.15;;;0.50;90.40;;;;;;5067621;28;20400;-68
2021/01/18 06:28:27;;;;;;;33.28;18.55;;;0.60;90.50;;;;;;5062727;28;20043;-68
2021/01/18 06:30:58;;;;;;;38.92;20.35;;;0.60;90.50;;;;;;5074196;28;20020;-68
2021/01/18 06:33:35;;;;;;;36.92;18.73;;;0.50;90.40;;;;;;5063233;28;20623;-68
2021/01/18 06:36:17;;;;;;;37.33;18.73;;;0.60;90.40;;;;;;5055762;28;20052;-69
2021/01/18 06:38:48;;;;;;;34.15;18.30;;;0.60;90.40;;;;;;5067131;28;20116;-69
2021/01/18 06:41:22;;;;;;;35.67;18.63;;;0.60;90.40;;;;;;5054549;28;20079;-69
2021/01/18 06:43:47;;;;;;;33.72;18.65;;;0.60;90.40;;;;;;5053774;28;20056;-68
2021/01/18 06:46:18;;;;;;;37.53;18.98;;;0.60;90.40;;;;;;5054594;28;20041;-68
2021/01/18 06:48:44;;;;;;;34.70;18.60;;;0.60;90.30;;;;;;5055835;28;20120;-69
2021/01/18 06:51:14;;;;;;;35.63;19.05;;;0.60;90.30;;;;;;5054250;28;20032;-68
2021/01/18 06:53:45;;;;;;;35.20;17.58;;;0.70;90.30;;;;;;5065176;28;20123;-69
2021/01/18 06:56:23;;;;;;;33.80;17.63;;;0.70;90.30;;;;;;5068521;28;20144;-69
2021/01/18 06:58:56;;;;;;;34.13;17.80;;;0.70;90.30;;;;;;5069643;28;20401;-69
2021/01/18 07:01:31;;;;;;;34.22;18.63;;;0.70;90.30;;;;;;5064025;28;20028;-69
2021/01/18 07:04:08;;;;;;;34.83;18.58;;;0.80;90.30;;;;;;5067143;28;20027;-69
2021/01/18 07:06:36;;;;;;;35.70;19.42;;;0.80;90.20;;;;;;5063296;28;20033;-69
2021/01/18 07:09:04;;;;;;;34.75;18.25;;;0.80;90.10;;;;;;5065113;28;20074;-69
2021/01/18 07:11:29;;;;;;;36.10;18.08;;;0.80;90.10;;;;;;5074066;28;20027;-69
2021/01/18 07:13:55;;;;;;;33.80;18.85;;;0.80;90.10;;;;;;5058939;28;20029;-68
2021/01/18 07:16:25;;;;;;;34.70;18.25;;;0.80;90.20;;;;;;5058300;28;20031;-68
2021/01/18 07:19:03;;;;;;;36.03;18.80;;;0.80;90.20;;;;;;5061165;28;20381;-69
2021/01/18 07:21:30;;;;;;;37.35;19.63;;;0.80;90.20;;;;;;5056766;28;20037;-68
2021/01/18 07:24:00;;;;;;;37.83;19.90;;;0.80;90.20;;;;;;5059462;28;20021;-69
2021/01/18 07:26:56;;;;;;;37.58;20.17;;;0.80;90.20;;;;;;5053615;28;20393;-69
2021/01/18 07:29:24;;;;;;;36.10;18.88;;;0.80;90.20;;;;;;5064914;28;20056;-69
2021/01/18 07:31:55;;;;;;;36.67;18.75;;;0.80;90.20;;;;;;5053405;28;20100;-71
2021/01/18 07:34:24;;;;;;;35.10;20.40;;;0.80;90.30;;;;;;5061529;28;20032;-70
2021/01/18 07:36:50;;;;;;;38.40;20.33;;;0.80;90.30;;;;;;5060587;28;20053;-70
2021/01/18 07:39:42;;;;;;;37.38;20.58;;;0.80;90.40;;;;;;5064958;28;20033;-70
2021/01/18 07:42:31;;;;;;;39.30;19.67;;;0.80;90.50;;;;;;5066037;28;20037;-69
2021/01/18 07:45:11;;;;;;;37.92;18.40;;;0.80;90.50;;;;;;5048206;28;20517;-70
2021/01/18 07:47:54;;;;;;;36.28;19.23;;;0.80;90.60;;;;;;5052954;28;20080;-68
2021/01/18 07:50:39;;;;;;;36.67;19.90;;;0.90;90.60;;;;;;5052798;28;20384;-68
2021/01/18 07:53:08;;;;;;;39.65;19.23;;;0.90;90.50;;;;;;5054039;28;20033;-69
2021/01/18 07:55:35;;;;;;;39.45;20.35;;;0.90;90.50;;;;;;5053103;28;20460;-71
2021/01/18 07:58:33;;;;;;;37.30;19.00;;;0.90;90.60;;;;;;5058333;28;20032;-70
2021/01/18 08:01:08;;;;;;;38.22;19.15;;;0.90;90.60;;;;;;5019374;28;20408;-70
2021/01/18 08:03:33;;;;;;;;;;;1.00;90.60;;;;;;5052986;28;20068;-70
2021/01/18 08:06:04;;;;;;;40.05;20.27;;;1.00;90.50;;;;;;5060286;28;19908;-70
2021/01/18 08:08:29;;;;;;;37.33;19.17;;;1.00;90.60;;;;;;5068471;28;20025;-69
2021/01/18 08:10:58;;;;;;;40.92;20.10;;;1.00;90.70;;;;;;5063074;28;20025;-70
2021/01/18 08:13:30;;;;;;;39.58;21.05;;;1.00;90.60;;;;;;5052064;28;20128;-70
2021/01/18 08:15:56;;;;;;;38.05;20.92;;;1.10;90.70;;;;;;5072258;28;20107;-69
2021/01/18 08:18:27;;;;;;;39.47;20.08;;;1.10;90.70;;;;;;5051602;28;20103;-70
2021/01/18 08:20:52;;;;;;;36.50;20.30;;;1.10;90.70;;;;;;5052576;28;20108;-70
2021/01/18 08:23:43;;;;;;;41.63;21.75;;;1.10;90.60;;;;;;5060029;28;20158;-69
2021/01/18 08:26:10;;;;;;;38.38;20.83;;;1.20;90.70;;;;;;5066932;28;20496;-69
2021/01/18 08:28:36;;;;;;;44.75;21.67;;;1.20;90.60;;;;;;5052089;28;20044;-69
2021/01/18 08:31:02;;;;;;;41.25;20.70;;;1.20;90.70;;;;;;5056585;28;20107;-69
2021/01/18 08:33:28;;;;;;;40.75;22.05;;;1.20;90.70;;;;;;5061059;28;20044;-68
2021/01/18 08:35:56;;;;;;;46.00;21.83;;;1.20;90.70;;;;;;5052271;28;20029;-69
2021/01/18 08:38:28;;;;;;;40.22;22.08;;;1.20;90.70;;;;;;5057701;28;20033;-69
2021/01/18 08:41:08;;;;;;;44.53;23.20;;;1.30;90.70;;;;;;5051095;28;20028;-69
2021/01/18 08:43:51;;;;;;;37.10;20.55;;;1.30;90.70;;;;;;5052625;28;20051;-68
2021/01/18 08:46:31;;;;;;;37.33;20.42;;;1.40;90.70;;;;;;5058680;28;20514;-68
2021/01/18 08:49:19;;;;;;;43.95;21.63;;;1.40;90.70;;;;;;5070634;28;20534;-69
2021/01/18 08:51:46;;;;;;;40.95;20.60;;;1.50;90.70;;;;;;5052823;28;20029;-69
2021/01/18 08:54:27;;;;;;;40.15;21.20;;;1.50;90.60;;;;;;5051066;28;20032;-70
2021/01/18 08:56:52;;;;;;;37.67;20.38;;;1.50;90.70;;;;;;5070806;28;20481;-69
2021/01/18 08:59:18;;;;;;;40.55;20.60;;;1.50;90.70;;;;;;5052070;28;20042;-69
2021/01/18 09:01:56;;;;;;;39.03;21.42;;;1.60;90.70;;;;;;5055597;28;20024;-69
2021/01/18 09:04:24;;;;;;;38.60;20.58;;;1.70;90.60;;;;;;5068861;28;20104;-69
2021/01/18 09:06:49;;;;;;;44.65;22.35;;;1.70;90.50;;;;;;5071333;28;20526;-69
2021/01/18 09:09:15;;;;;;;40.67;21.08;;;1.70;90.50;;;;;;5053820;28;20025;-69
2021/01/18 09:11:41;;;;;;;37.88;20.58;;;1.80;90.50;;;;;;5066180;28;20032;-69
2021/01/18 09:14:08;;;;;;;37.47;20.02;;;1.90;90.50;;;;;;5060236;28;20033;-68
2021/01/18 09:16:33;;;;;;;40.13;21.17;;;1.90;90.40;;;;;;5056916;28;20029;-67
2021/01/18 09:19:06;;;;;;;42.33;21.50;;;2.00;90.40;;;;;;5053861;28;20028;-68
2021/01/18 09:21:32;;;;;;;37.15;20.67;;;2.00;90.30;;;;;;5051960;28;20021;-69
2021/01/18 09:23:58;;;;;;;39.47;20.55;;;2.10;90.30;;;;;;5053269;28;20029;-68
2021/01/18 09:26:24;;;;;;;41.22;21.50;;;2.10;90.30;;;;;;5056158;28;20036;-68
2021/01/18 09:28:53;;;;;;;38.30;21.10;;;2.10;90.30;;;;;;5056201;28;20024;-67
2021/01/18 09:31:19;;;;;;;41.22;21.98;;;2.10;90.30;;;;;;5057051;28;20400;-68
2021/01/18 09:33:45;;;;;;;37.75;20.73;;;2.10;90.40;;;;;;5053157;28;20065;-69
2021/01/18 09:36:12;;;;;;;41.80;23.27;;;2.10;90.40;;;;;;5050639;28;20489;-68
2021/01/18 09:38:39;;;;;;;38.30;22.25;;;2.20;90.40;;;;;;5052240;28;20423;-69
2021/01/18 09:41:04;;;;;;;39.63;21.88;;;2.20;90.30;;;;;;5054928;28;20024;-68
2021/01/18 09:43:33;;;;;;;39.40;21.95;;;2.20;90.30;;;;;;5058250;28;20021;-69
2021/01/18 09:45:58;;;;;;;40.53;22.80;;;2.20;90.40;;;;;;5055824;28;20037;-67
2021/01/18 09:48:25;;;;;;;39.75;21.23;;;2.20;90.40;;;;;;5054287;28;20052;-68
2021/01/18 09:50:58;;;;;;;38.65;21.80;;;2.20;90.40;;;;;;5057339;28;20024;-68
2021/01/18 09:53:24;;;;;;;39.50;22.30;;;2.20;90.50;;;;;;5059348;28;20065;-68
2021/01/18 09:55:51;;;;;;;39.33;22.83;;;2.30;90.50;;;;;;5060159;28;20039;-69
2021/01/18 09:58:25;;;;;;;44.75;22.15;;;2.30;90.50;;;;;;5066621;28;20028;-69
2021/01/18 10:00:53;;;;;;;39.65;22.40;;;2.40;90.50;;;;;;5061935;28;20052;-67
2021/01/18 10:03:30;;;;;;;38.30;21.42;;;2.30;90.50;;;;;;5058014;28;20071;-68
2021/01/18 10:06:11;;;;;;;41.92;22.08;;;2.30;90.50;;;;;;5058584;28;20033;-68
2021/01/18 10:08:40;;;;;;;38.72;21.33;;;2.30;90.50;;;;;;5055703;28;20040;-68
2021/01/18 10:11:06;;;;;;;38.30;22.00;;;2.40;90.50;;;;;;5058940;28;20029;-67
2021/01/18 10:13:32;;;;;;;42.70;22.58;;;2.40;90.50;;;;;;5060222;28;20032;-68
2021/01/18 10:16:12;;;;;;;44.83;23.05;;;2.40;90.50;;;;;;5056028;28;20125;-67
2021/01/18 10:18:44;;;;;;;38.67;21.42;;;2.50;90.60;;;;;;5061130;28;20472;-70
2021/01/18 10:21:12;;;;;;;40.03;23.10;;;2.50;90.50;;;;;;5069251;28;20036;-69
2021/01/18 10:23:47;;;;;;;41.30;22.63;;;2.60;90.50;;;;;;5057172;28;20127;-67
2021/01/18 10:26:20;;;;;;;40.10;22.70;;;2.60;90.50;;;;;;5056103;28;20025;-67
2021/01/18 10:28:50;;;;;;;41.25;23.35;;;2.60;90.40;;;;;;5067320;28;20416;-69
2021/01/18 10:31:24;;;;;;;43.13;23.50;;;2.60;90.50;;;;;;5069597;28;20163;-68
2021/01/18 10:34:20;;;;;;;40.97;22.88;;;2.60;90.60;;;;;;5052290;28;20041;-68
2021/01/18 10:36:47;;;;;;;40.08;22.88;;;2.60;90.50;;;;;;5050323;28;20029;-66
2021/01/18 10:39:27;;;;;;;43.00;23.65;;;2.60;90.50;;;;;;5066424;28;20039;-70
2021/01/18 10:42:00;;;;;;;42.85;22.70;;;2.60;90.50;;;;;;5063428;28;20029;-69
2021/01/18 10:44:25;;;;;;;42.72;23.33;;;2.70;90.60;;;;;;5053447;28;20394;-68
2021/01/18 10:46:51;;;;;;;41.58;22.90;;;2.70;90.60;;;;;;5051638;28;20033;-68
2021/01/18 10:49:24;;;;;;;43.45;24.00;;;2.70;90.60;;;;;;5050357;28;20036;-69
2021/01/18 10:52:04;;;;;;;46.97;23.90;;;2.80;90.60;;;;;;5068883;28;20042;-69
2021/01/18 10:54:30;;;;;;;44.28;24.40;;;2.80;90.60;;;;;;5052459;28;20103;-69
2021/01/18 10:56:57;;;;;;;39.97;23.45;;;2.90;90.60;;;;;;5057816;28;20060;-69
2021/01/18 10:59:23;;;;;;;39.63;22.63;;;3.00;90.60;;;;;;5057155;28;20444;-69
2021/01/18 11:02:02;;;;;;;39.10;22.58;;;3.00;90.60;;;;;;5060395;28;20050;-68
2021/01/18 11:04:29;;;;;;;42.67;22.40;;;3.00;90.60;;;;;;5052441;28;20373;-69
2021/01/18 11:06:56;;;;;;;40.20;22.48;;;3.00;90.70;;;;;;5062677;28;20063;-70
2021/01/18 11:09:34;;;;;;;40.72;22.35;;;3.10;90.70;;;;;;5062956;28;20082;-69
2021/01/18 11:12:01;;;;;;;39.38;21.83;;;3.20;90.70;;;;;;5063856;28;20036;-68
2021/01/18 11:14:28;;;;;;;43.20;23.20;;;3.20;90.70;;;;;;5064255;28;20479;-67
2021/01/18 11:16:58;;;;;;;42.13;23.33;;;3.30;90.70;;;;;;5061353;28;20141;-69
2021/01/18 11:19:24;;;;;;;46.03;23.45;;;3.40;90.60;;;;;;5053264;28;20451;-68
2021/01/18 11:21:50;;;;;;;42.33;21.73;;;3.50;90.60;;;;;;5075055;28;20058;-69
2021/01/18 11:24:15;;;;;;;46.38;24.08;;;3.50;90.50;;;;;;5071891;28;20432;-69
2021/01/18 11:26:41;;;;;;;42.60;22.65;;;3.60;90.50;;;;;;5059159;28;20024;-69
2021/01/18 11:29:07;;;;;;;41.30;22.35;;;3.60;90.60;;;;;;5055920;28;20037;-69
2021/01/18 11:31:32;;;;;;;42.65;22.45;;;3.60;90.40;;;;;;5052236;28;20029;-69
2021/01/18 11:33:58;;;;;;;44.22;22.92;;;3.60;90.40;;;;;;5061087;28;20091;-69
2021/01/18 11:36:24;;;;;;;41.70;23.80;;;3.60;90.40;;;;;;5053099;28;20485;-69
2021/01/18 11:38:50;;;;;;;45.70;24.15;;;3.60;90.50;;;;;;5057676;28;20056;-69
2021/01/18 11:41:15;;;;;;;46.08;23.58;;;3.50;90.60;;;;;;5065561;28;20082;-69
2021/01/18 11:43:41;;;;;;;42.38;22.83;;;3.50;90.70;;;;;;5047299;28;481979;-69
2021/01/18 11:46:06;;;;;;;40.42;23.17;;;3.50;90.80;;;;;;5076435;28;20119;-69
2021/01/18 11:48:32;;;;;;;43.03;22.70;;;3.50;90.90;;;;;;5068813;28;20040;-69
2021/01/18 11:50:57;;;;;;;44.85;23.35;;;3.60;90.90;;;;;;5059760;28;20127;-69
2021/01/18 11:53:23;;;;;;;40.63;23.08;;;3.60;91.00;;;;;;5052088;28;20032;-70
2021/01/18 11:55:50;;;;;;;45.28;23.48;;;3.60;91.00;;;;;;5052348;28;20051;-70
2021/01/18 11:58:15;;;;;;;45.67;23.52;;;3.60;91.10;;;;;;5057842;28;20032;-70
2021/01/18 12:00:41;;;;;;;43.75;23.27;;;3.60;91.10;;;;;;5063836;28;20028;-70
2021/01/18 12:03:07;;;;;;;42.63;24.05;;;3.70;91.10;;;;;;5063145;28;20043;-69
2021/01/18 12:05:33;;;;;;;48.95;24.63;;;3.70;91.10;;;;;;5060673;28;20028;-70
2021/01/18 12:08:03;;;;;;;50.35;25.17;;;3.70;91.20;;;;;;5061059;28;20016;-68
2021/01/18 12:10:36;;;;;;;43.13;23.15;;;3.70;91.20;;;;;;5052552;28;20119;-69
2021/01/18 12:13:03;;;;;;;40.08;22.42;;;3.70;91.30;;;;;;5054108;28;20021;-69
2021/01/18 12:15:29;;;;;;;47.55;24.20;;;3.70;91.40;;;;;;5052285;28;20072;-68
2021/01/18 12:17:55;;;;;;;48.88;24.80;;;3.70;91.40;;;;;;5052368;28;20075;-69
2021/01/18 12:20:21;;;;;;;49.47;26.00;;;3.80;91.40;;;;;;5052629;28;20029;-69
2021/01/18 12:22:51;;;;;;;44.50;23.92;;;3.70;91.50;;;;;;5055328;28;20051;-68
2021/01/18 12:25:16;;;;;;;46.75;23.48;;;3.70;91.60;;;;;;5072314;28;20036;-68
2021/01/18 12:27:48;;;;;;;45.60;24.52;;;3.70;91.60;;;;;;5065900;28;20440;-68
2021/01/18 12:30:14;;;;;;;44.60;23.85;;;3.80;91.60;;;;;;5063004;28;20039;-66
2021/01/18 12:32:39;;;;;;;46.95;23.85;;;3.80;91.60;;;;;;5051109;28;20052;-68
2021/01/18 12:35:05;;;;;;;53.33;25.88;;;3.80;91.70;;;;;;5050940;28;20065;-69
2021/01/18 12:37:31;;;;;;;44.50;25.08;;;3.90;91.70;;;;;;5055701;28;20176;-69
2021/01/18 12:39:56;;;;;;;50.05;26.48;;;3.80;91.80;;;;;;5053594;28;20033;-68
2021/01/18 12:42:22;;;;;;;49.17;24.63;;;3.80;91.80;;;;;;5061168;28;20045;-68
2021/01/18 12:44:47;;;;;;;48.58;24.75;;;3.80;91.90;;;;;;5083569;28;20105;-69
2021/01/18 12:47:12;;;;;;;51.70;25.92;;;3.80;92.00;;;;;;5052061;28;20029;-68
2021/01/18 12:49:38;;;;;;;52.10;25.92;;;3.80;92.00;;;;;;5057944;28;20028;-69
2021/01/18 12:52:04;;;;;;;53.50;25.48;;;3.80;92.10;;;;;;5053214;28;20024;-69